Map

Track Data

SID SEASON NUMBER BASIN SUBBASIN NAME ISO_TIME NATURE LAT LON WMO_WIND WMO_PRES WMO_AGENCY TRACK_TYPE DIST2LAND LANDFALL IFLAG USA_AGENCY USA_ATCF_ID USA_LAT USA_LON USA_RECORD USA_STATUS USA_WIND USA_PRES USA_SSHS USA_R34_NE USA_R34_SE USA_R34_SW USA_R34_NW USA_R50_NE USA_R50_SE USA_R50_SW USA_R50_NW USA_R64_NE USA_R64_SE USA_R64_SW USA_R64_NW USA_POCI USA_ROCI USA_RMW USA_EYE TOKYO_LAT TOKYO_LON TOKYO_GRADE TOKYO_WIND TOKYO_PRES TOKYO_R50_DIR TOKYO_R50_LONG TOKYO_R50_SHORT TOKYO_R30_DIR TOKYO_R30_LONG TOKYO_R30_SHORT TOKYO_LAND CMA_LAT CMA_LON CMA_CAT CMA_WIND CMA_PRES HKO_LAT HKO_LON HKO_CAT HKO_WIND HKO_PRES NEWDELHI_LAT NEWDELHI_LON NEWDELHI_GRADE NEWDELHI_WIND NEWDELHI_PRES NEWDELHI_CI NEWDELHI_DP NEWDELHI_POCI REUNION_LAT REUNION_LON REUNION_TYPE REUNION_WIND REUNION_PRES REUNION_TNUM REUNION_CI REUNION_RMW REUNION_R34_NE REUNION_R34_SE REUNION_R34_SW REUNION_R34_NW REUNION_R50_NE REUNION_R50_SE REUNION_R50_SW REUNION_R50_NW REUNION_R64_NE REUNION_R64_SE REUNION_R64_SW REUNION_R64_NW BOM_LAT BOM_LON BOM_TYPE BOM_WIND BOM_PRES BOM_TNUM BOM_CI BOM_RMW BOM_R34_NE BOM_R34_SE BOM_R34_SW BOM_R34_NW BOM_R50_NE BOM_R50_SE BOM_R50_SW BOM_R50_NW BOM_R64_NE BOM_R64_SE BOM_R64_SW BOM_R64_NW BOM_ROCI BOM_POCI BOM_EYE BOM_POS_METHOD BOM_PRES_METHOD NADI_LAT NADI_LON NADI_CAT NADI_WIND NADI_PRES WELLINGTON_LAT WELLINGTON_LON WELLINGTON_WIND WELLINGTON_PRES DS824_LAT DS824_LON DS824_STAGE DS824_WIND DS824_PRES TD9636_LAT TD9636_LON TD9636_STAGE TD9636_WIND TD9636_PRES TD9635_LAT TD9635_LON TD9635_WIND TD9635_PRES TD9635_ROCI NEUMANN_LAT NEUMANN_LON NEUMANN_CLASS NEUMANN_WIND NEUMANN_PRES MLC_LAT MLC_LON MLC_CLASS MLC_WIND MLC_PRES USA_GUST BOM_GUST BOM_GUST_PER REUNION_GUST REUNION_GUST_PER USA_SEAHGT USA_SEARAD_NE USA_SEARAD_SE USA_SEARAD_SW USA_SEARAD_NW STORM_SPEED STORM_DIR
2019071N04161 2019 15 WP MM NOT_NAMED 2019-03-11 18:00:00 DS 3.70000 160.500 main 1202 1177 O_____________ jtwc_wp WP032019 3.70000 160.500 LO 10 1009 -3 50 12 286
2019071N04161 2019 15 WP MM NOT_NAMED 2019-03-11 21:00:00 DS 3.86260 159.928 main 1178 1150 P_____________ WP032019 3.86260 159.928 LO 12 1009 -3 52 11 285
2019071N04161 2019 15 WP MM NOT_NAMED 2019-03-12 00:00:00 DS 4.00000 159.400 main 1150 1131 O_____________ jtwc_wp WP032019 4.00000 159.400 LO 15 1009 -3 55 10 284
2019071N04161 2019 15 WP MM NOT_NAMED 2019-03-12 03:00:00 DS 4.09993 158.942 main 1124 1107 P_____________ WP032019 4.09993 158.942 LO 15 1008 -3 55 9 283
2019071N04161 2019 15 WP MM NOT_NAMED 2019-03-12 06:00:00 DS 4.20000 158.500 main 1107 1082 O_____________ jtwc_wp WP032019 4.20000 158.500 LO 15 1008 -3 55 10 284
2019071N04161 2019 15 WP MM NOT_NAMED 2019-03-12 09:00:00 DS 4.34250 158.000 main 1082 1066 P_____________ WP032019 4.34250 158.000 LO 15 1008 -3 55 10 287
2019071N04161 2019 15 WP MM NOT_NAMED 2019-03-12 12:00:00 DS 4.50000 157.500 main 1066 1051 O_____________ jtwc_wp WP032019 4.50000 157.500 WV 15 1008 -3 55 10 288
2019071N04161 2019 15 WP MM NOT_NAMED 2019-03-12 15:00:00 DS 4.63489 157.072 main 1051 1037 P_____________ WP032019 4.63489 157.072 WV 15 1008 -3 55 9 289
2019071N04161 2019 15 WP MM NOT_NAMED 2019-03-12 18:00:00 DS 4.80000 156.600 main 1041 1026 O_____________ jtwc_wp WP032019 4.80000 156.600 WV 15 1008 -3 55 12 291
2019071N04161 2019 15 WP MM NOT_NAMED 2019-03-12 21:00:00 DS 5.04249 155.988 main 1026 1020 P_____________ WP032019 5.04249 155.988 WV 17 1007 -3 45 14 291
2019071N04161 2019 15 WP MM NOT_NAMED 2019-03-13 00:00:00 DS 5.30000 155.300 main 1021 1005 O_____________ jtwc_wp WP032019 5.30000 155.300 WV 20 1007 -3 1008 120 35 15 289
2019071N04161 2019 15 WP MM NOT_NAMED 2019-03-13 03:00:00 DS 5.51494 154.607 main 1006 995 P_____________ WP032019 5.51494 154.607 WV 20 1006 -3 1008 120 37 15 286
2019071N04161 2019 15 WP MM NOT_NAMED 2019-03-13 06:00:00 DS 5.70000 153.900 main 998 986 O_____________ jtwc_wp WP032019 5.70000 153.900 WV 20 1006 -3 1008 120 40 14 283
2019071N04161 2019 15 WP MM NOT_NAMED 2019-03-13 09:00:00 DS 5.84241 153.200 main 986 984 P_____________ WP032019 5.84241 153.200 WV 20 1006 -3 1008 120 42 14 282
2019071N04161 2019 15 WP MM NOT_NAMED 2019-03-13 12:00:00 DS 6.00000 152.500 main 991 987 O_____________ jtwc_wp WP032019 6.00000 152.500 WV 20 1006 -3 1008 120 45 15 286
2019071N04161 2019 15 WP MM NOT_NAMED 2019-03-13 15:00:00 DS 6.23494 151.793 main 1002 1002 P_____________ WP032019 6.23494 151.793 WV 20 1006 -3 1008 120 42 15 290
2019071N04161 2019 15 WP MM NOT_NAMED 2019-03-13 18:00:00 DS 6.50000 151.100 main 1031 1031 O_____________ jtwc_wp WP032019 6.50000 151.100 WV 20 1006 -3 1008 120 40 14 291
2019071N04161 2019 15 WP MM NOT_NAMED 2019-03-13 21:00:00 DS 6.74982 150.457 main 1044 1044 P_____________ WP032019 6.74982 150.457 WV 20 1005 -3 1008 120 40 14 291
2019071N04161 2019 15 WP MM NOT_NAMED 2019-03-14 00:00:00 DS 7.00000 149.800 main 1054 1051 O_____________ jtwc_wp WP032019 7.00000 149.800 WV 20 1005 -3 1008 120 40 15 291
2019071N04161 2019 15 WP MM NOT_NAMED 2019-03-14 03:00:00 DS 7.27248 149.058 main 1070 1064 P_____________ WP032019 7.27248 149.058 WV 20 1005 -3 1008 127 42 16 289
2019071N04161 2019 15 WP MM NOT_NAMED 2019-03-14 06:00:00 DS 7.50000 148.300 main 1080 1078 O_____________ jtwc_wp WP032019 7.50000 148.300 WV 20 1005 -3 1008 135 45 15 283
2019071N04161 2019 15 WP MM NOT_NAMED 2019-03-14 09:00:00 DS 7.62238 147.585 main 1087 1086 P_____________ WP032019 7.62238 147.585 WV 20 1005 -3 1008 135 65 14 278
2019071N04161 2019 15 WP MM NOT_NAMED 2019-03-14 12:00:00 DS 7.70000 146.900 main 1098 1098 O_____________ jtwc_wp WP032019 7.70000 146.900 WV 20 1005 -3 1008 135 85 13 278
2019071N04161 2019 15 WP MM NOT_NAMED 2019-03-14 15:00:00 DS 7.80733 146.250 main 1109 1109 P_____________ WP032019 7.80733 146.250 WV 20 1005 -3 1008 135 65 13 279
2019071N04161 2019 15 WP MM NOT_NAMED 2019-03-14 18:00:00 NR 7.90000 145.600 main 1126 1126 O_____________ jtwc_wp WP032019 7.90000 145.600 DB 20 1006 -3 1008 135 45 14 277
2019071N04161 2019 15 WP MM NOT_NAMED 2019-03-14 21:00:00 NR 7.96499 144.893 main 1147 1147 P_____________ WP032019 7.96499 144.893 DB 22 1003 -3 1008 135 40 14 274
2019071N04161 2019 15 WP MM NOT_NAMED 2019-03-15 00:00:00 TS 8.00000 144.200 main 1162 1162 O_____________ jtwc_wp WP032019 8.00000 144.200 TD 25 1001 -1 1008 135 35 13 272
2019071N04161 2019 15 WP MM NOT_NAMED 2019-03-15 03:00:00 TS 8.01488 143.578 main 1179 1179 P_____________ WP032019 8.01488 143.578 TD 25 1003 -1 1008 135 35 12 270
2019071N04161 2019 15 WP MM NOT_NAMED 2019-03-15 06:00:00 TS 8.00000 143.000 main 1197 1176 O_____________ jtwc_wp WP032019 8.00000 143.000 TD 25 1006 -1 1008 135 35 11 267
2019071N04161 2019 15 WP MM NOT_NAMED 2019-03-15 09:00:00 TS 7.95743 142.435 main 1172 1141 P_____________ WP032019 7.95743 142.435 TD 25 1006 -1 1008 135 47 11 265
2019071N04161 2019 15 WP MM NOT_NAMED 2019-03-15 12:00:00 TS 7.90000 141.900 main 1141 1122 O_____________ jtwc_wp WP032019 7.90000 141.900 TD 25 1006 -1 1008 135 60 10 264
2019071N04161 2019 15 WP MM NOT_NAMED 2019-03-15 15:00:00 TS 7.84991 141.393 main 1111 1095 P_____________ WP032019 7.84991 141.393 TD 27 1004 -1 1007 100 60 10 264
2019071N04161 2019 15 WP MM NOT_NAMED 2019-03-15 18:00:00 TS 7.80000 140.900 main 1095 1081 O_____________ jtwc_wp WP032019 7.80000 140.900 TD 30 1003 -1 1007 65 60 10 264
2019071N04161 2019 15 WP MM NOT_NAMED 2019-03-15 21:00:00 TS 7.74989 140.415 main 1070 1050 P_____________ WP032019 7.74989 140.415 TD 30 1004 -1 1008 82 60 10 264
2019071N04161 2019 15 WP MM NOT_NAMED 2019-03-16 00:00:00 TS 7.70000 139.900 main 1050 1024 O_____________ jtwc_wp WP032019 7.70000 139.900 TD 30 1005 -1 1009 100 60 11 265
2019071N04161 2019 15 WP MM NOT_NAMED 2019-03-16 03:00:00 TS 7.64998 139.315 main 1014 991 P_____________ WP032019 7.64998 139.315 TD 30 1005 -1 1009 95 55 12 265
2019071N04161 2019 15 WP MM NOT_NAMED 2019-03-16 06:00:00 TS 7.60000 138.700 main 991 970 O_____________ jtwc_wp WP032019 7.60000 138.700 TD 30 1005 -1 1009 90 50 12 265
2019071N04161 2019 15 WP MM NOT_NAMED 2019-03-16 09:00:00 TS 7.54985 138.115 main 959 942 P_____________ WP032019 7.54985 138.115 TD 30 1004 -1 1008 105 45 12 265
2019071N04161 2019 15 WP MM NOT_NAMED 2019-03-16 12:00:00 TS 7.50000 137.500 main 942 917 O_____________ jtwc_wp WP032019 7.50000 137.500 TD 30 1003 -1 1007 120 40 13 265
2019071N04161 2019 15 WP MM NOT_NAMED 2019-03-16 15:00:00 TS 7.44249 136.807 main 917 898 P_____________ WP032019 7.44249 136.807 TD 30 1004 -1 1007 102 40 14 263
2019071N04161 2019 15 WP MM NOT_NAMED 2019-03-16 18:00:00 TS 7.34000 136.120 main 898 896 O_O___________ jtwc_wp WP032019 7.40000 136.100 TD 30 1005 -1 1008 85 40 7.10000 136.200 1 25 1008 13 265
2019071N04161 2019 15 WP MM NOT_NAMED 2019-03-16 21:00:00 TS 7.33255 135.457 main 896 879 P_P___________ WP032019 7.38493 135.428 TD 30 1005 -1 1009 112 40 7.22779 135.515 1 25 1008 13 271
2019071N04161 2019 15 WP MM NOT_NAMED 2019-03-17 00:00:00 TS 7.35714 134.843 main 871 828 O_O___________ jtwc_wp WP032019 7.40000 134.800 TD 30 1005 -1 1010 140 40 7.30000 134.900 1 25 1008 11 272
2019071N04161 2019 15 WP MM NOT_NAMED 2019-03-17 03:00:00 TS 7.37237 134.306 main 828 788 P_P___________ WP032019 7.46492 134.220 TD 32 1004 -1 1010 127 30 7.27981 134.392 1 25 1008 10 270
2019071N04161 2019 15 WP MM NOT_NAMED 2019-03-17 06:00:00 TS 7.35000 133.800 main 788 739 O_O___________ jtwc_wp WP032019 7.50000 133.700 TS 35 1004 0 45 25 45 1010 115 20 7.20000 133.900 1 25 1008 10 264
2019071N04161 2019 15 WP MM NOT_NAMED 2019-03-17 09:00:00 TS 7.26112 133.294 main 739 684 P_P___________ WP032019 7.42227 133.272 TS 32 1004 -1 1009 127 20 7.09998 133.315 1 25 1008 11 259
2019071N04161 2019 15 WP MM NOT_NAMED 2019-03-17 12:00:00 TS 7.15000 132.750 main 684 618 O_O___________ jtwc_wp WP032019 7.30000 132.800 TD 30 1004 -1 1008 140 20 7.00000 132.700 1 25 1008 12 261
2019071N04161 2019 15 WP MM NOT_NAMED 2019-03-17 15:00:00 TS 7.08247 132.123 main 607 542 P_P___________ WP032019 7.20754 132.138 TD 27 1005 -1 1008 152 20 6.95740 132.108 1 27 1006 13 263
2019071N04161 2019 15 WP MM NOT_NAMED 2019-03-17 18:00:00 TS 7.00000 131.450 main 542 466 O_O___________ jtwc_wp WP032019 7.10000 131.400 TD 25 1007 -1 1009 165 20 6.90000 131.500 1 29 1005 14 260
2019071N04161 2019 15 WP MM NOT_NAMED 2019-03-17 21:00:00 TS 6.85367 130.779 main 466 392 P_P___________ WP032019 6.94243 130.692 TD 25 1007 -1 1009 152 25 6.76491 130.865 1 29 1005 14 257
2019071N04161 2019 15 WP MM NOT_NAMED 2019-03-18 00:00:00 TS 6.70000 130.100 main 392 329 O_O___________ jtwc_wp WP032019 6.80000 130.000 TD 25 1008 -1 1010 140 30 6.60000 130.200 1 29 1005 14 258
2019071N04161 2019 15 WP MM NOT_NAMED 2019-03-18 03:00:00 TS 6.57369 129.417 main 319 259 P_P___________ WP032019 6.73491 129.335 TD 25 1007 -1 1010 150 30 6.41247 129.500 1 29 1005 14 262
2019071N04161 2019 15 WP MM NOT_NAMED 2019-03-18 06:00:00 TS 6.50000 128.750 main 259 185 O_O___________ jtwc_wp WP032019 6.70000 128.700 TD 25 1007 -1 1010 160 30 6.30000 128.800 1 29 1005 13 267
2019071N04161 2019 15 WP MM NOT_NAMED 2019-03-18 09:00:00 TS 6.50992 128.110 main 185 123 P_P___________ WP032019 6.64237 128.100 TD 25 1006 -1 1010 160 30 6.37747 128.120 1 27 1006 12 272
2019071N04161 2019 15 WP MM NOT_NAMED 2019-03-18 12:00:00 TS 6.55000 127.500 main 119 70 O_O___________ jtwc_wp WP032019 6.60000 127.500 TD 25 1006 -1 1010 160 30 6.50000 127.500 1 25 1008 12 273
2019071N04161 2019 15 WP MM NOT_NAMED 2019-03-18 15:00:00 TS 6.56488 126.921 main 59 22 P_P___________ WP032019 6.59235 126.880 TD 22 1006 -1 1010 160 30 6.53742 126.963 1 25 1008 11 270
2019071N04161 2019 15 WP MM NOT_NAMED 2019-03-18 18:00:00 TS 6.55000 126.350 main 22 0 O_O___________ jtwc_wp WP032019 6.60000 126.200 DB 20 1007 -3 1010 160 30 6.50000 126.500 1 25 1008 12 265
2019071N04161 2019 15 WP MM NOT_NAMED 2019-03-18 21:00:00 TS 6.46745 125.757 main 22 0 P_P___________ WP032019 6.59251 125.415 DB 20 1006 -3 1010 160 30 6.34239 126.100 1 25 1008 13 265
2019071N04161 2019 15 WP MM NOT_NAMED 2019-03-19 00:00:00 TS 6.42857 125.071 main 0 0 O_O___________ jtwc_wp WP032019 6.60000 124.600 DB 20 1006 -3 1010 160 30 6.20000 125.700 1 25 1008 15 271
2019071N04161 2019 15 WP MM NOT_NAMED 2019-03-19 03:00:00 TS 6.49588 124.278 main 0 0 P_P___________ WP032019 6.64250 123.805 DB 17 1008 -3 1010 160 30 6.20265 125.225 1 22 1008 16 276
2019071N04161 2019 15 WP MM NOT_NAMED 2019-03-19 06:00:00 TS 6.60000 123.500 main 59 49 O_O___________ jtwc_wp WP032019 6.70000 123.100 DB 15 1010 -3 1010 160 30 6.30000 124.700 0 19 1008 17 279
2019071N04161 2019 15 WP MM NOT_NAMED 2019-03-19 09:00:00 NR 6.75250 122.552 main 45 11 P_____________ WP032019 6.75250 122.552 DB 15 1010 -3 1010 160 30 0 14 278
2019071N04161 2019 15 WP MM NOT_NAMED 2019-03-19 12:00:00 NR 6.80000 122.100 main 15 O_____________ jtwc_wp WP032019 6.80000 122.100 DB 15 1010 -3 1010 160 30 9 276

Digital Typhoon Data and Search

About IBTrACS Database

This database is a web-friendly format of International Best Track Archive for Climate Stewardship (IBTrACS), a global best track data archive curated by NOAA dating back to 1842.

Updated: 2021-10-27